createdAt,value
2022-12-08T00:00:45.960Z,5.6
2022-12-08T00:01:54.634Z,5.4
2022-12-08T00:03:02.954Z,5.4
2022-12-08T00:04:11.208Z,5.4
2022-12-08T00:05:19.767Z,5.9
2022-12-08T00:06:28.141Z,5.9
2022-12-08T00:07:36.553Z,5.9
2022-12-08T00:08:45.039Z,6.2
2022-12-08T00:09:53.437Z,6.2
2022-12-08T00:11:01.776Z,6.2
2022-12-08T00:12:10.338Z,6.1
2022-12-08T00:13:18.716Z,6.1
2022-12-08T00:14:27.059Z,6.1
2022-12-08T00:15:35.613Z,6.9
2022-12-08T00:16:44.028Z,6.9
2022-12-08T00:17:52.361Z,6.9
2022-12-08T00:19:00.978Z,6.1
2022-12-08T00:20:09.309Z,6.1
2022-12-08T00:21:17.659Z,6.1
2022-12-08T00:22:26.246Z,6.6
2022-12-08T00:23:34.577Z,6.6
2022-12-08T00:24:42.951Z,6.6
2022-12-08T00:25:51.502Z,6.3
2022-12-08T00:26:59.858Z,6.3
2022-12-08T00:28:08.202Z,6.3
2022-12-08T00:29:17.622Z,6
2022-12-08T00:30:25.103Z,6
2022-12-08T00:31:33.537Z,6
2022-12-08T00:32:42.039Z,6.1
2022-12-08T00:33:50.403Z,6.1
2022-12-08T00:34:58.743Z,6.1
2022-12-08T00:36:07.313Z,6.3
2022-12-08T00:37:15.665Z,6.3
2022-12-08T00:38:24.048Z,6.3
2022-12-08T00:39:32.625Z,6.6
2022-12-08T00:40:40.965Z,6.6
2022-12-08T00:41:49.310Z,6.6
2022-12-08T00:42:57.864Z,6.7
2022-12-08T00:44:06.217Z,6.7
2022-12-08T00:45:14.562Z,6.7
2022-12-08T00:46:23.148Z,6.7
2022-12-08T00:47:31.489Z,6.7
2022-12-08T00:48:39.857Z,6.7
2022-12-08T00:49:48.438Z,7
2022-12-08T00:50:56.788Z,7
2022-12-08T00:52:05.152Z,7
2022-12-08T00:53:13.705Z,6.8
2022-12-08T00:54:22.078Z,6.8
2022-12-08T00:55:30.406Z,6.8
2022-12-08T00:56:38.966Z,6.8
2022-12-08T00:57:47.336Z,6.8
2022-12-08T00:58:55.676Z,6.8
2022-12-08T01:00:04.450Z,7.4
2022-12-08T01:01:12.621Z,7.4
2022-12-08T01:02:20.912Z,7.4
2022-12-08T01:03:29.571Z,7
2022-12-08T01:04:37.847Z,7
2022-12-08T01:05:46.197Z,7
2022-12-08T01:06:54.760Z,6.4
2022-12-08T01:08:03.159Z,6.4
2022-12-08T01:09:11.480Z,6.4
2022-12-08T01:10:20.074Z,6.5
2022-12-08T01:11:28.393Z,6.5
2022-12-08T01:12:36.742Z,6.5
2022-12-08T01:13:45.319Z,5.6
2022-12-08T01:14:55.045Z,5.6
2022-12-08T01:16:02.005Z,5.6
2022-12-08T01:17:10.678Z,5.6
2022-12-08T01:18:18.957Z,5.6
2022-12-08T01:19:27.312Z,5.6
2022-12-08T01:20:35.871Z,5.1
2022-12-08T01:21:44.220Z,5.1
2022-12-08T01:22:52.584Z,5.1
2022-12-08T01:24:01.139Z,5.4
2022-12-08T01:25:09.486Z,5.4
2022-12-08T01:26:17.890Z,5.4
2022-12-08T01:27:26.417Z,5
2022-12-08T01:28:34.769Z,5
2022-12-08T01:29:43.120Z,5
2022-12-08T01:30:51.670Z,4.8
2022-12-08T01:32:00.008Z,4.8
2022-12-08T01:33:08.364Z,4.8
2022-12-08T01:34:16.927Z,5.2
2022-12-08T01:35:25.267Z,5.2
2022-12-08T01:36:33.620Z,5.2
2022-12-08T01:37:42.182Z,5.1
2022-12-08T01:38:50.529Z,5.1
2022-12-08T01:39:58.904Z,5.1
2022-12-08T01:41:07.456Z,5.3
2022-12-08T01:42:15.835Z,5.3
2022-12-08T01:43:24.157Z,5.3
2022-12-08T01:44:32.715Z,4.9
2022-12-08T01:45:42.954Z,4.9
2022-12-08T01:46:49.394Z,4.9
2022-12-08T01:47:58.072Z,4.3
2022-12-08T01:49:06.320Z,4.3
2022-12-08T01:50:14.642Z,4.3
2022-12-08T01:51:23.227Z,4.4
2022-12-08T01:52:31.592Z,4.4
2022-12-08T01:53:39.943Z,4.4
2022-12-08T01:54:48.518Z,4.1
2022-12-08T01:55:56.869Z,4.1
2022-12-08T01:57:05.208Z,4.1
2022-12-08T01:58:13.804Z,3.1
2022-12-08T01:59:22.125Z,3.1
2022-12-08T02:00:30.498Z,3.1
2022-12-08T02:01:39.115Z,3
2022-12-08T02:02:47.448Z,3
2022-12-08T02:03:55.738Z,3
2022-12-08T02:05:04.313Z,3.4
2022-12-08T02:06:12.652Z,3.4
2022-12-08T02:07:21.007Z,3.4
2022-12-08T02:08:29.624Z,2.8
2022-12-08T02:09:37.908Z,2.8
2022-12-08T02:10:46.268Z,2.8
2022-12-08T02:11:54.849Z,2.4
2022-12-08T02:13:03.202Z,2.4
2022-12-08T02:14:11.568Z,2.4
2022-12-08T02:15:20.129Z,2.7
2022-12-08T02:16:28.527Z,2.7
2022-12-08T02:17:36.858Z,2.7
2022-12-08T02:18:47.902Z,2.3
2022-12-08T02:19:53.764Z,2.3
2022-12-08T02:21:02.149Z,2.3
2022-12-08T02:22:10.697Z,2.2
2022-12-08T02:23:19.065Z,2.2
2022-12-08T02:24:27.404Z,2.2
2022-12-08T02:25:35.994Z,2
2022-12-08T02:26:44.326Z,2
2022-12-08T02:27:52.696Z,2
2022-12-08T02:29:01.265Z,2.2
2022-12-08T02:30:09.753Z,2.2
2022-12-08T02:31:17.982Z,2.2
2022-12-08T02:32:26.539Z,1.9
2022-12-08T02:33:34.919Z,1.9
2022-12-08T02:34:43.274Z,1.9
2022-12-08T02:35:51.821Z,1.9
2022-12-08T02:37:00.162Z,1.9
2022-12-08T02:38:08.515Z,1.9
2022-12-08T02:39:17.115Z,2.1
2022-12-08T02:40:25.487Z,2.1
2022-12-08T02:41:33.860Z,2.1
2022-12-08T02:42:42.402Z,2.1
2022-12-08T02:43:50.773Z,2.1
2022-12-08T02:44:59.109Z,2.1
2022-12-08T02:46:07.738Z,2.5
2022-12-08T02:47:16.011Z,2.5
2022-12-08T02:48:24.352Z,2.5
2022-12-08T02:49:32.925Z,2.5
2022-12-08T02:50:41.273Z,2.5
2022-12-08T02:51:49.656Z,2.5
2022-12-08T02:52:58.212Z,2.5
2022-12-08T02:54:06.583Z,2.5
2022-12-08T02:55:14.926Z,2.5
2022-12-08T02:56:23.517Z,2.9
2022-12-08T02:57:31.868Z,2.9
2022-12-08T02:58:40.230Z,2.9
2022-12-08T02:59:48.777Z,3.1
2022-12-08T03:00:57.171Z,3.1
2022-12-08T03:02:05.588Z,3.1
2022-12-08T03:03:14.073Z,3.2
2022-12-08T03:04:22.419Z,3.2
2022-12-08T03:05:30.761Z,3.2
2022-12-08T03:06:39.321Z,3.8
2022-12-08T03:07:47.741Z,3.8
2022-12-08T03:08:56.080Z,3.8
2022-12-08T03:10:04.908Z,2.8
2022-12-08T03:11:12.985Z,2.8
2022-12-08T03:12:21.339Z,2.8
2022-12-08T03:13:29.926Z,2.4
2022-12-08T03:14:38.291Z,2.4
2022-12-08T03:15:46.661Z,2.4
2022-12-08T03:16:55.179Z,3.3
2022-12-08T03:18:03.560Z,3.3
2022-12-08T03:19:11.877Z,3.3
2022-12-08T03:20:20.472Z,3.1
2022-12-08T03:21:28.832Z,3.1
2022-12-08T03:22:37.168Z,3.1
2022-12-08T03:23:45.734Z,4
2022-12-08T03:24:54.088Z,4
2022-12-08T03:26:02.434Z,4
2022-12-08T03:27:11.012Z,4.8
2022-12-08T03:28:19.353Z,4.8
2022-12-08T03:29:27.731Z,4.8
2022-12-08T03:30:36.287Z,4.5
2022-12-08T03:31:44.633Z,4.5
2022-12-08T03:32:52.989Z,4.5
2022-12-08T03:34:01.561Z,5.7
2022-12-08T03:35:09.874Z,5.7
2022-12-08T03:36:18.207Z,5.7
2022-12-08T03:37:26.756Z,5.7
2022-12-08T03:38:35.119Z,5.7
2022-12-08T03:39:43.487Z,5.7
2022-12-08T03:40:52.029Z,6.1
2022-12-08T03:42:00.373Z,6.1
2022-12-08T03:43:08.743Z,6.1
2022-12-08T03:44:17.280Z,5
2022-12-08T03:45:25.637Z,5
2022-12-08T03:46:33.999Z,5
2022-12-08T03:47:42.550Z,4.7
2022-12-08T03:48:50.903Z,4.7
2022-12-08T03:49:59.288Z,4.7
2022-12-08T03:51:07.829Z,5.1
2022-12-08T03:52:16.170Z,5.1
2022-12-08T03:53:24.531Z,5.1
2022-12-08T03:54:33.067Z,5.4
2022-12-08T03:55:41.423Z,5.4
2022-12-08T03:56:49.774Z,5.4
2022-12-08T03:57:58.353Z,5.3
2022-12-08T03:59:06.685Z,5.3
2022-12-08T04:00:15.038Z,5.3
2022-12-08T04:01:23.690Z,5
2022-12-08T04:02:32.023Z,5
2022-12-08T04:03:40.344Z,5
2022-12-08T04:04:48.887Z,4.5
2022-12-08T04:05:57.283Z,4.5
2022-12-08T04:07:05.598Z,4.5
2022-12-08T04:08:14.241Z,4.4
2022-12-08T04:09:22.514Z,4.4
2022-12-08T04:10:30.865Z,4.4
2022-12-08T04:11:39.413Z,4.2
2022-12-08T04:12:47.797Z,4.2
2022-12-08T04:13:56.146Z,4.2
2022-12-08T04:15:04.701Z,4.9
2022-12-08T04:16:13.142Z,4.9
2022-12-08T04:17:21.417Z,4.9
2022-12-08T04:18:29.988Z,4.7
2022-12-08T04:19:38.352Z,4.7
2022-12-08T04:20:46.689Z,4.7
2022-12-08T04:21:55.286Z,4.5
2022-12-08T04:23:03.619Z,4.5
2022-12-08T04:24:11.975Z,4.5
2022-12-08T04:25:20.533Z,4.7
2022-12-08T04:26:28.872Z,4.7
2022-12-08T04:27:37.222Z,4.7
2022-12-08T04:28:45.839Z,4.6
2022-12-08T04:29:54.250Z,4.6
2022-12-08T04:31:02.687Z,4.6
2022-12-08T04:32:11.142Z,5.4
2022-12-08T04:33:19.500Z,5.4
2022-12-08T04:34:27.837Z,5.4
2022-12-08T04:35:36.434Z,4.9
2022-12-08T04:36:44.759Z,4.9
2022-12-08T04:37:53.154Z,4.9
2022-12-08T04:39:01.667Z,5
2022-12-08T04:40:10.586Z,5
2022-12-08T04:41:18.930Z,5
2022-12-08T04:42:27.492Z,4.9
2022-12-08T04:43:35.859Z,4.9
2022-12-08T04:44:44.176Z,4.9
2022-12-08T04:45:52.735Z,5.3
2022-12-08T04:47:01.129Z,5.3
2022-12-08T04:48:09.429Z,5.3
2022-12-08T04:49:17.981Z,6.5
2022-12-08T04:50:26.321Z,6.5
2022-12-08T04:51:34.663Z,6.5
2022-12-08T04:52:43.213Z,7
2022-12-08T04:53:51.622Z,7
2022-12-08T04:54:59.919Z,7
2022-12-08T04:56:08.464Z,7.1
2022-12-08T04:57:16.807Z,7.1
2022-12-08T04:58:25.167Z,7.1
2022-12-08T04:59:33.718Z,7.6
2022-12-08T05:00:42.073Z,7.6
2022-12-08T05:01:50.470Z,7.6
2022-12-08T05:02:59.001Z,8.3
2022-12-08T05:04:07.302Z,8.3
2022-12-08T05:05:15.636Z,8.3
2022-12-08T05:06:24.222Z,7.9
2022-12-08T05:07:32.566Z,7.9
2022-12-08T05:08:40.924Z,7.9
2022-12-08T05:09:49.493Z,8.5
2022-12-08T05:10:57.816Z,8.5
2022-12-08T05:12:06.158Z,8.5
2022-12-08T05:13:14.721Z,8.5
2022-12-08T05:14:23.075Z,8.5
2022-12-08T05:15:31.403Z,8.5
2022-12-08T05:16:40.012Z,8.5
2022-12-08T05:17:48.306Z,8.5
2022-12-08T05:18:56.666Z,8.5
2022-12-08T05:20:05.669Z,8.5
2022-12-08T05:21:13.553Z,8.5
2022-12-08T05:22:21.905Z,8.5
2022-12-08T05:23:30.477Z,7.8
2022-12-08T05:24:42.615Z,7.8
2022-12-08T05:25:47.150Z,7.8
2022-12-08T05:26:55.675Z,8.2
2022-12-08T05:28:32.565Z,8.2
2022-12-08T05:29:12.374Z,8.2
2022-12-08T05:30:20.911Z,9.3
2022-12-08T05:31:29.303Z,9.3
2022-12-08T05:32:37.608Z,9.3
2022-12-08T05:33:46.168Z,9.5
2022-12-08T05:34:54.508Z,9.5
2022-12-08T05:36:02.849Z,9.5
2022-12-08T05:37:11.401Z,9.7
2022-12-08T05:38:19.751Z,9.7
2022-12-08T05:39:28.092Z,9.7
2022-12-08T05:40:36.661Z,9.3
2022-12-08T05:41:45.039Z,9.3
2022-12-08T05:42:53.388Z,9.3
2022-12-08T05:44:01.921Z,10
2022-12-08T05:45:10.267Z,10
2022-12-08T05:46:18.665Z,10
2022-12-08T05:47:28.865Z,10.2
2022-12-08T05:48:35.517Z,10.2
2022-12-08T05:49:43.861Z,10.2
2022-12-08T05:50:52.540Z,10.2
2022-12-08T05:52:00.788Z,10.2
2022-12-08T05:53:09.134Z,10.2
2022-12-08T05:54:17.684Z,9.7
2022-12-08T05:55:26.029Z,9.7
2022-12-08T05:56:34.370Z,9.7
2022-12-08T05:57:42.945Z,10
2022-12-08T05:58:51.280Z,10
2022-12-08T05:59:59.628Z,10
2022-12-08T06:01:08.185Z,10.1
2022-12-08T06:02:16.611Z,10.1
2022-12-08T06:03:24.955Z,10.1
2022-12-08T06:04:33.475Z,11.9
2022-12-08T06:05:41.815Z,11.9
2022-12-08T06:06:50.260Z,11.9
2022-12-08T06:07:58.782Z,12.1
2022-12-08T06:09:07.113Z,12.1
2022-12-08T06:10:15.465Z,12.1
2022-12-08T06:11:24.016Z,11.7
2022-12-08T06:12:32.370Z,11.7
2022-12-08T06:13:40.752Z,11.7
2022-12-08T06:14:49.280Z,13.9
2022-12-08T06:15:57.685Z,13.9
2022-12-08T06:17:06.141Z,13.9
2022-12-08T06:18:14.729Z,11.2
2022-12-08T06:19:23.106Z,11.2
2022-12-08T06:20:31.464Z,11.2
2022-12-08T06:21:40.126Z,10.5
2022-12-08T06:22:48.495Z,10.5
2022-12-08T06:23:56.846Z,10.5
2022-12-08T06:25:08.524Z,10.7
2022-12-08T06:26:14.161Z,10.7
2022-12-08T06:27:22.453Z,10.7
2022-12-08T06:28:31.016Z,19.5
2022-12-08T06:29:39.406Z,19.5
2022-12-08T06:30:47.964Z,19.5
2022-12-08T06:31:56.602Z,9.5
2022-12-08T06:33:04.912Z,9.5
2022-12-08T06:34:13.249Z,9.5
2022-12-08T06:35:21.805Z,9.9
2022-12-08T06:36:30.165Z,9.9
2022-12-08T06:37:38.505Z,9.9
2022-12-08T06:38:47.187Z,16.5
2022-12-08T06:39:55.527Z,16.5
2022-12-08T06:41:03.877Z,16.5
2022-12-08T06:42:12.432Z,11.3
2022-12-08T06:43:20.800Z,11.3
2022-12-08T06:44:29.132Z,11.3
2022-12-08T06:45:37.751Z,13.3
2022-12-08T06:46:46.035Z,13.3
2022-12-08T06:47:54.394Z,13.3
2022-12-08T06:49:02.953Z,10.9
2022-12-08T06:50:11.328Z,10.9
2022-12-08T06:51:19.682Z,10.9
2022-12-08T06:52:28.215Z,9.8
2022-12-08T06:53:36.648Z,9.8
2022-12-08T06:54:44.992Z,9.8
2022-12-08T06:56:00.781Z,9.8
2022-12-08T06:57:01.897Z,9.8
2022-12-08T06:58:10.262Z,9.8
2022-12-08T06:59:18.810Z,9.6
2022-12-08T07:00:27.151Z,9.6
2022-12-08T07:01:35.563Z,9.6
2022-12-08T07:02:44.156Z,9.5
2022-12-08T07:03:52.397Z,9.5
2022-12-08T07:05:00.742Z,9.5
2022-12-08T07:06:09.297Z,9.1
2022-12-08T07:07:17.634Z,9.1
2022-12-08T07:08:26.037Z,9.1
2022-12-08T07:09:34.569Z,8.8
2022-12-08T07:10:42.969Z,8.8
2022-12-08T07:11:51.341Z,8.8
2022-12-08T07:12:59.894Z,8.8
2022-12-08T07:14:08.238Z,8.8
2022-12-08T07:15:16.622Z,8.8
2022-12-08T07:16:25.213Z,8.4
2022-12-08T07:17:33.548Z,8.4
2022-12-08T07:18:41.876Z,8.4
2022-12-08T07:19:50.438Z,8.9
2022-12-08T07:20:58.804Z,8.9
2022-12-08T07:22:07.181Z,8.9
2022-12-08T07:23:15.749Z,9.9
2022-12-08T07:24:24.110Z,9.9
2022-12-08T07:25:32.481Z,9.9
2022-12-08T07:26:41.017Z,11
2022-12-08T07:27:49.383Z,11
2022-12-08T07:28:57.734Z,11
2022-12-08T07:30:06.609Z,9.2
2022-12-08T07:31:14.677Z,9.2
2022-12-08T07:32:22.986Z,9.2
2022-12-08T07:33:31.572Z,9.4
2022-12-08T07:34:39.895Z,9.4
2022-12-08T07:35:49.377Z,9.4
2022-12-08T07:36:56.824Z,11.4
2022-12-08T07:38:05.179Z,11.4
2022-12-08T07:39:13.521Z,11.4
2022-12-08T07:40:22.118Z,9.2
2022-12-08T07:41:30.426Z,9.2
2022-12-08T07:42:38.809Z,9.2
2022-12-08T07:43:47.362Z,11.1
2022-12-08T07:44:55.711Z,11.1
2022-12-08T07:46:04.126Z,11.1
2022-12-08T07:47:12.635Z,11.2
2022-12-08T07:48:20.971Z,11.2
2022-12-08T07:49:29.367Z,11.2
2022-12-08T07:50:37.906Z,10.1
2022-12-08T07:51:46.256Z,10.1
2022-12-08T07:52:54.603Z,10.1
2022-12-08T07:54:03.149Z,11.5
2022-12-08T07:55:11.511Z,11.5
2022-12-08T07:56:19.898Z,11.5
2022-12-08T07:57:28.441Z,11
2022-12-08T07:58:36.782Z,11
2022-12-08T07:59:45.146Z,11
2022-12-08T08:00:53.761Z,11
2022-12-08T08:02:22.632Z,11
2022-12-08T08:03:10.434Z,11
2022-12-08T08:04:19.022Z,12.8
2022-12-08T08:05:27.332Z,12.8
2022-12-08T08:06:35.646Z,12.8
2022-12-08T08:07:44.289Z,11.6
2022-12-08T08:08:52.596Z,11.6
2022-12-08T08:10:00.952Z,11.6
2022-12-08T08:11:17.324Z,12.5
2022-12-08T08:12:33.121Z,12.5
2022-12-08T08:13:26.253Z,12.5
2022-12-08T08:14:34.814Z,12.2
2022-12-08T08:15:43.225Z,12.2
2022-12-08T08:16:51.620Z,12.2
2022-12-08T08:18:00.042Z,11.5
2022-12-08T08:19:08.386Z,11.5
2022-12-08T08:20:16.720Z,11.5
2022-12-08T08:21:49.040Z,10.2
2022-12-08T08:22:33.626Z,10.2
2022-12-08T08:23:42.000Z,10.2
2022-12-08T08:24:50.543Z,9.7
2022-12-08T08:25:58.915Z,9.7
2022-12-08T08:27:07.275Z,9.7
2022-12-08T08:28:15.848Z,11.6
2022-12-08T08:29:24.192Z,11.6
2022-12-08T08:30:32.528Z,11.6
2022-12-08T08:31:41.118Z,9.8
2022-12-08T08:32:49.424Z,9.8
2022-12-08T08:33:57.779Z,9.8
2022-12-08T08:35:06.320Z,9.5
2022-12-08T08:36:14.656Z,9.5
2022-12-08T08:37:23.074Z,9.5
2022-12-08T08:38:31.570Z,10.6
2022-12-08T08:39:39.915Z,10.6
2022-12-08T08:40:48.247Z,10.6
2022-12-08T08:41:56.787Z,9.5
2022-12-08T08:43:05.167Z,9.5
2022-12-08T08:44:13.567Z,9.5
2022-12-08T08:45:22.111Z,10.4
2022-12-08T08:46:30.529Z,10.4
2022-12-08T08:47:38.836Z,10.4
2022-12-08T08:48:47.404Z,9.4
2022-12-08T08:49:55.749Z,9.4
2022-12-08T08:51:04.145Z,9.4
2022-12-08T08:52:12.692Z,10.2
2022-12-08T08:53:21.076Z,10.2
2022-12-08T08:54:29.384Z,10.2
2022-12-08T08:55:37.941Z,9.9
2022-12-08T08:56:46.291Z,9.9
2022-12-08T08:57:54.658Z,9.9
2022-12-08T08:59:03.224Z,10.4
2022-12-08T09:00:11.578Z,10.4
2022-12-08T09:01:19.975Z,10.4
2022-12-08T09:02:28.484Z,10.1
2022-12-08T09:03:36.829Z,10.1
2022-12-08T09:04:45.222Z,10.1
2022-12-08T09:05:53.809Z,11.5
2022-12-08T09:07:02.087Z,11.5
2022-12-08T09:08:10.503Z,11.5
2022-12-08T09:09:19.018Z,14.5
2022-12-08T09:10:27.363Z,14.5
2022-12-08T09:11:35.719Z,14.5
2022-12-08T09:12:44.274Z,10.4
2022-12-08T09:13:52.669Z,10.4
2022-12-08T09:15:01.009Z,10.4
2022-12-08T09:16:09.605Z,10.6
2022-12-08T09:17:17.929Z,10.6
2022-12-08T09:18:26.284Z,10.6
2022-12-08T09:19:34.852Z,9.3
2022-12-08T09:20:43.188Z,9.3
2022-12-08T09:21:51.569Z,9.3
2022-12-08T09:23:00.171Z,9.9
2022-12-08T09:24:08.531Z,9.9
2022-12-08T09:25:16.918Z,9.9
2022-12-08T09:26:25.461Z,11.7
2022-12-08T09:27:33.813Z,11.7
2022-12-08T09:28:42.162Z,11.7
2022-12-08T09:29:50.709Z,9.6
2022-12-08T09:30:59.134Z,9.6
2022-12-08T09:32:07.450Z,9.6
2022-12-08T09:33:16.090Z,10.9
2022-12-08T09:34:24.423Z,10.9
2022-12-08T09:35:32.775Z,10.9
2022-12-08T09:36:41.360Z,14.5
2022-12-08T09:37:49.693Z,14.5
2022-12-08T09:38:58.080Z,14.5
2022-12-08T09:40:07.004Z,11.2
2022-12-08T09:41:15.005Z,11.2
2022-12-08T09:42:23.322Z,11.2
2022-12-08T09:43:31.887Z,10.8
2022-12-08T09:44:40.245Z,10.8
2022-12-08T09:45:48.591Z,10.8
2022-12-08T09:46:57.305Z,15.1
2022-12-08T09:48:05.592Z,15.1
2022-12-08T09:49:13.942Z,15.1
2022-12-08T09:50:22.581Z,15.2
2022-12-08T09:51:30.839Z,15.2
2022-12-08T09:52:39.170Z,15.2
2022-12-08T09:53:47.748Z,11.8
2022-12-08T09:54:56.084Z,11.8
2022-12-08T09:56:04.419Z,11.8
2022-12-08T09:57:12.983Z,10.9
2022-12-08T09:58:21.316Z,10.9
2022-12-08T09:59:29.645Z,10.9
2022-12-08T10:00:38.202Z,13.3
2022-12-08T10:01:46.596Z,13.3
2022-12-08T10:02:54.906Z,13.3
2022-12-08T10:04:03.462Z,13.7
2022-12-08T10:05:11.850Z,13.7
2022-12-08T10:06:20.149Z,13.7
2022-12-08T10:07:28.713Z,12.4
2022-12-08T10:08:37.069Z,12.4
2022-12-08T10:09:45.419Z,12.4
2022-12-08T10:10:53.977Z,11.2
2022-12-08T10:12:02.301Z,11.2
2022-12-08T10:13:10.673Z,11.2
2022-12-08T10:14:19.209Z,23.1
2022-12-08T10:15:27.548Z,23.1
2022-12-08T10:16:35.949Z,23.1
2022-12-08T10:17:44.457Z,11.2
2022-12-08T10:18:52.803Z,11.2
2022-12-08T10:20:01.493Z,11.2
2022-12-08T10:21:09.697Z,10.6
2022-12-08T10:22:18.035Z,10.6
2022-12-08T10:23:26.400Z,10.6
2022-12-08T10:24:34.944Z,16
2022-12-08T10:25:43.292Z,16
2022-12-08T10:26:51.635Z,16
2022-12-08T10:28:00.197Z,23.6
2022-12-08T10:29:08.660Z,23.6
2022-12-08T10:30:16.963Z,23.6
2022-12-08T10:31:25.608Z,11
2022-12-08T10:32:33.874Z,11
2022-12-08T10:33:42.233Z,11
2022-12-08T10:34:54.942Z,13.5
2022-12-08T10:35:59.136Z,13.5
2022-12-08T10:37:07.481Z,13.5
2022-12-08T10:38:16.030Z,10.4
2022-12-08T10:39:24.368Z,10.4
2022-12-08T10:40:32.722Z,10.4
2022-12-08T10:41:41.275Z,9.6
2022-12-08T10:42:49.590Z,9.6
2022-12-08T10:43:57.937Z,9.6
2022-12-08T10:45:06.513Z,12.1
2022-12-08T10:46:14.860Z,12.1
2022-12-08T10:47:23.173Z,12.1
2022-12-08T10:48:31.744Z,71.300003
2022-12-08T10:49:40.098Z,71.300003
2022-12-08T10:50:48.438Z,71.300003
2022-12-08T10:51:57.001Z,32.400002
2022-12-08T10:53:05.346Z,32.400002
2022-12-08T10:54:13.788Z,32.400002
2022-12-08T10:55:22.254Z,11
2022-12-08T10:56:30.585Z,11
2022-12-08T10:57:38.961Z,11
2022-12-08T10:58:47.527Z,10.1
2022-12-08T10:59:55.868Z,10.1
2022-12-08T11:01:04.295Z,10.1
2022-12-08T11:02:12.915Z,8.9
2022-12-08T11:03:21.125Z,8.9
2022-12-08T11:04:29.475Z,8.9
2022-12-08T11:05:38.057Z,8.9
2022-12-08T11:06:46.388Z,8.9
2022-12-08T11:07:54.794Z,8.9
2022-12-08T11:09:03.320Z,10
2022-12-08T11:10:11.653Z,10
2022-12-08T11:11:23.152Z,10
2022-12-08T11:12:28.555Z,8.7
2022-12-08T11:13:36.908Z,8.7
2022-12-08T11:14:45.249Z,8.7
2022-12-08T11:15:53.831Z,10.4
2022-12-08T11:17:02.261Z,10.4
2022-12-08T11:18:10.512Z,10.4
2022-12-08T11:19:19.061Z,9.6
2022-12-08T11:20:27.416Z,9.6
2022-12-08T11:21:35.768Z,9.6
2022-12-08T11:22:44.307Z,9.8
2022-12-08T11:23:52.665Z,9.8
2022-12-08T11:25:01.018Z,9.8
2022-12-08T11:26:09.570Z,9.5
2022-12-08T11:27:17.912Z,9.5
2022-12-08T11:28:26.259Z,9.5
2022-12-08T11:29:34.799Z,10.2
2022-12-08T11:30:43.130Z,10.2
2022-12-08T11:31:51.628Z,10.2
2022-12-08T11:33:00.074Z,10.1
2022-12-08T11:34:08.390Z,10.1
2022-12-08T11:35:16.736Z,10.1
2022-12-08T11:36:25.285Z,9.1
2022-12-08T11:37:35.100Z,9.1
2022-12-08T11:38:41.986Z,9.1
2022-12-08T11:39:50.540Z,9.5
2022-12-08T11:40:58.881Z,9.5
2022-12-08T11:42:07.230Z,9.5
2022-12-08T11:43:15.805Z,7.7
2022-12-08T11:44:24.158Z,7.7
2022-12-08T11:45:32.519Z,7.7
2022-12-08T11:46:41.067Z,8.5
2022-12-08T11:47:54.210Z,8.5
2022-12-08T11:49:01.234Z,8.5
2022-12-08T11:50:06.427Z,8.2
2022-12-08T11:51:14.653Z,8.2
2022-12-08T11:52:22.997Z,8.2
2022-12-08T11:53:31.570Z,6.8
2022-12-08T11:54:39.912Z,6.8
2022-12-08T11:55:50.063Z,6.8
2022-12-08T11:56:56.819Z,7.2
2022-12-08T11:58:05.207Z,7.2
2022-12-08T11:59:13.547Z,7.2
2022-12-08T12:00:22.115Z,6.3
2022-12-08T12:01:30.454Z,6.3
2022-12-08T12:02:38.875Z,6.3
2022-12-08T12:03:47.438Z,6.5
2022-12-08T12:04:55.738Z,6.5
2022-12-08T12:06:37.987Z,6.5
2022-12-08T12:07:12.629Z,6
2022-12-08T12:08:20.998Z,6
2022-12-08T12:09:29.324Z,6
2022-12-08T12:10:37.895Z,6.1
2022-12-08T12:11:46.241Z,6.1
2022-12-08T12:12:54.578Z,6.1
2022-12-08T12:14:03.152Z,5.9
2022-12-08T12:15:11.481Z,5.9
2022-12-08T12:16:19.913Z,5.9
2022-12-08T12:19:25.033Z,5.4
2022-12-08T12:20:33.398Z,5.4
2022-12-08T12:21:41.936Z,5.8
2022-12-08T12:22:50.282Z,5.8
2022-12-08T12:23:58.641Z,5.8
2022-12-08T12:25:07.194Z,5.2
2022-12-08T12:26:15.550Z,5.2
2022-12-08T12:27:23.878Z,5.2
2022-12-08T12:28:32.448Z,5.1
2022-12-08T12:29:40.795Z,5.1
2022-12-08T12:30:49.210Z,5.1
2022-12-08T12:31:57.744Z,5.4
2022-12-08T12:33:06.090Z,5.4
2022-12-08T12:34:14.438Z,5.4
2022-12-08T12:35:27.101Z,5.3
2022-12-08T12:36:31.371Z,5.3
2022-12-08T12:37:39.679Z,5.3
2022-12-08T12:38:48.251Z,5.1
2022-12-08T12:39:56.597Z,5.1
2022-12-08T12:41:04.973Z,5.1
2022-12-08T12:42:13.519Z,5.6
2022-12-08T12:43:21.888Z,5.6
2022-12-08T12:44:30.229Z,5.6
2022-12-08T12:45:38.850Z,5.4
2022-12-08T12:46:47.140Z,5.4
2022-12-08T12:47:56.757Z,5.4
2022-12-08T12:49:04.055Z,5.6
2022-12-08T12:50:12.408Z,5.6
2022-12-08T12:51:20.762Z,5.6
2022-12-08T12:52:29.354Z,4.8
2022-12-08T12:53:37.684Z,4.8
2022-12-08T12:54:46.078Z,4.8
2022-12-08T12:55:54.627Z,4.6
2022-12-08T12:57:02.986Z,4.6
2022-12-08T12:58:11.353Z,4.6
2022-12-08T12:59:19.901Z,4.9
2022-12-08T13:00:28.251Z,4.9
2022-12-08T13:01:36.630Z,4.9
2022-12-08T13:02:45.183Z,5.1
2022-12-08T13:03:53.488Z,5.1
2022-12-08T13:05:01.856Z,5.1
2022-12-08T13:06:14.336Z,5
2022-12-08T13:07:18.761Z,5
2022-12-08T13:08:27.189Z,5
2022-12-08T13:09:35.669Z,5.2
2022-12-08T13:10:44.017Z,5.2
2022-12-08T13:11:52.371Z,5.2
2022-12-08T13:13:00.937Z,5.4
2022-12-08T13:14:09.285Z,5.4
2022-12-08T13:15:17.636Z,5.4
2022-12-08T13:16:26.268Z,5.3
2022-12-08T13:17:34.531Z,5.3
2022-12-08T13:18:42.888Z,5.3
2022-12-08T13:19:51.991Z,5.7
2022-12-08T13:20:59.778Z,5.7
2022-12-08T13:22:08.122Z,5.7
2022-12-08T13:23:16.713Z,4.9
2022-12-08T13:24:25.069Z,4.9
2022-12-08T13:25:36.724Z,4.9
2022-12-08T13:26:41.995Z,5.1
2022-12-08T13:27:50.371Z,5.1
2022-12-08T13:28:58.762Z,5.1
2022-12-08T13:30:07.520Z,5
2022-12-08T13:31:15.733Z,5
2022-12-08T13:32:24.049Z,5
2022-12-08T13:33:32.623Z,4.3
2022-12-08T13:34:40.977Z,4.3
2022-12-08T13:35:49.315Z,4.3
2022-12-08T13:36:57.856Z,4.6
2022-12-08T13:38:06.201Z,4.6
2022-12-08T13:39:14.557Z,4.6
2022-12-08T13:40:23.151Z,4.6
2022-12-08T13:41:31.505Z,4.6
2022-12-08T13:42:39.834Z,4.6
2022-12-08T13:44:10.542Z,4.2
2022-12-08T13:45:20.033Z,4.2
2022-12-08T13:48:35.501Z,4.2
2022-12-08T13:53:41.817Z,5.4
2022-12-08T13:57:29.471Z,4.5
2022-12-08T13:58:37.736Z,4.5
2022-12-08T13:59:46.075Z,4.5
2022-12-08T14:00:54.642Z,4.5
2022-12-08T14:02:02.979Z,4.5
2022-12-08T14:03:11.428Z,4.5
2022-12-08T14:04:42.409Z,4.3
2022-12-08T14:05:47.955Z,4.3
2022-12-08T14:06:37.073Z,4.3
2022-12-08T14:07:46.462Z,4.6
2022-12-08T14:09:01.454Z,4.6
2022-12-08T14:10:03.561Z,4.6
2022-12-08T14:11:12.063Z,4.4
2022-12-08T14:12:20.496Z,4.4
2022-12-08T14:13:28.814Z,4.4
2022-12-08T14:15:01.616Z,5.1
2022-12-08T14:15:45.871Z,5.1
2022-12-08T14:16:54.547Z,5.1
2022-12-08T14:18:03.138Z,5.2
2022-12-08T14:19:11.643Z,5.2
2022-12-08T14:20:20.269Z,5.2
2022-12-08T14:21:32.774Z,4.4
2022-12-08T14:22:37.228Z,4.4
2022-12-08T14:23:45.612Z,4.4
2022-12-08T14:24:54.143Z,5.7
2022-12-08T14:26:02.501Z,5.7
2022-12-08T14:27:10.875Z,5.7
2022-12-08T14:28:19.450Z,5.3
2022-12-08T14:29:27.858Z,5.3
2022-12-08T14:30:36.134Z,5.3
2022-12-08T15:03:39.384Z,0
2022-12-08T15:04:47.828Z,0
2022-12-08T15:05:56.143Z,0
2022-12-08T15:07:04.729Z,5.9
2022-12-08T15:08:13.312Z,5.9
2022-12-08T15:09:21.604Z,5.9
2022-12-08T15:10:30.222Z,6
2022-12-08T15:11:38.582Z,6
2022-12-08T15:12:47.006Z,6
2022-12-08T15:13:55.595Z,6
2022-12-08T15:15:03.983Z,6
2022-12-08T15:16:12.400Z,6
2022-12-08T15:17:20.959Z,6.2
2022-12-08T15:18:29.355Z,6.2
2022-12-08T15:19:37.805Z,6.2
2022-12-08T15:20:46.345Z,5.8
2022-12-08T15:21:54.747Z,5.8
2022-12-08T15:23:03.122Z,5.8
2022-12-08T15:24:11.704Z,6.4
2022-12-08T15:25:20.123Z,6.4
2022-12-08T15:26:28.507Z,6.4
2022-12-08T15:27:47.048Z,6.2
2022-12-08T15:28:45.464Z,6.2
2022-12-08T15:29:53.849Z,6.2
2022-12-08T15:31:02.445Z,5.7
2022-12-08T15:32:10.828Z,5.7
2022-12-08T15:33:19.218Z,5.7
2022-12-08T15:34:27.804Z,5.8
2022-12-08T15:35:40.663Z,5.8
2022-12-08T15:36:44.532Z,5.8
2022-12-08T15:37:53.094Z,6.1
2022-12-08T15:39:01.463Z,6.1
2022-12-08T15:40:09.872Z,6.1
2022-12-08T15:41:18.401Z,5.7
2022-12-08T15:42:26.754Z,5.7
2022-12-08T15:43:35.138Z,5.7
2022-12-08T15:44:43.726Z,7.4
2022-12-08T15:45:58.846Z,7.4
2022-12-08T15:47:00.543Z,7.4
2022-12-08T15:48:09.062Z,6.8
2022-12-08T15:49:17.413Z,6.8
2022-12-08T15:50:25.857Z,6.8
2022-12-08T15:51:34.449Z,5.1
2022-12-08T15:52:42.778Z,5.1
2022-12-08T15:53:53.605Z,5.1
2022-12-08T15:55:02.140Z,6.4
2022-12-08T15:56:27.653Z,6.4
2022-12-08T15:57:22.138Z,6.4
2022-12-08T15:59:35.981Z,8.3
2022-12-08T16:00:53.242Z,8.3
2022-12-08T16:01:53.049Z,6.5
2022-12-08T16:03:34.494Z,6.5
2022-12-08T16:04:37.189Z,6.5
2022-12-08T16:05:41.395Z,6.4
2022-12-08T16:07:38.761Z,6.4
2022-12-08T16:09:13.041Z,7.2
2022-12-08T16:10:19.139Z,7.2
2022-12-08T16:11:57.167Z,7.2
2022-12-08T16:13:13.792Z,6.5
2022-12-08T16:13:56.991Z,6.5
2022-12-08T16:15:48.366Z,6.5
2022-12-08T16:16:07.855Z,7.4
2022-12-08T16:17:18.827Z,7.4
2022-12-08T16:18:27.244Z,7.4
2022-12-08T16:19:35.944Z,8
2022-12-08T16:21:07.333Z,8
2022-12-08T16:22:30.051Z,8
2022-12-08T16:23:13.309Z,7.6
2022-12-08T16:24:09.724Z,7.6
2022-12-08T16:25:19.715Z,7.6